Aérodrome :
LOGIN :

S'inscrire | Disclaimer

   EN    FR    IT 

 










Légende :    VFR   VFR Marginal   IFR   IFR Intensif   IFR Très Intensif
Visi : 
Plafond : 
>= 8 km
>= 3000ft
5 à 8 km
1000 à 3000 ft
1500m à 5 km
500 à 1000 ft
800 à 1500m
200 à 500 ft
< 800m
< 200 ft
Symboles :   Orages  Brouillard  Fortes neiges  Fortes précipitations  Vent > 20 kt
SIGMETs :   Divers  Orages  Givrage  Turbulence  Onde Orograph.  Cendres Volcan.







- Altitude de l'aérodrome : 204 ft
- Code IATA : AGF
- Voir les cartes d'approche


LFBA - Agen

DERNIER METAR :
  • 151500Z AUTO 08003KT 050V120 9999 FEW021 OVC032 17/13 Q1009 NOSIG

METARs EXPIRÉS :
  • 151430Z AUTO 00000KT 9999 BKN022 BKN027 OVC100 17/13 Q1009 NOSIG
  • 151400Z AUTO 33003KT 220V360 9999 FEW020 BKN027 OVC100 17/13 Q1008 NOSIG
  • 151330Z AUTO VRB03KT 9999 FEW019 BKN026 OVC110 17/13 Q1008 NOSIG
  • 151300Z AUTO 27003KT 240V310 9999 FEW020 OVC026 17/13 Q1008 NOSIG
  • 151230Z AUTO VRB02KT 9999 FEW017 OVC026 17/13 Q1009 NOSIG

TAF TAF LFBA
Valide du 15 à 15h jusqu'au 16 à 00h UTC


151400Z 1515/1524 33005KT 9999 BKN025
BECMG 1518/1520 CAVOK
Pas de NOTAMs connus pour ce terrain.
1 SIGMET publié pour la FIR Bordeaux (LFBB) :
 
Turbulence forte
LFBB SIGMET 8 VALID 151400/151800 LFPW
LFBB BORDEAUX FIR/UIR SEV TURB FCST WI N4600 E00300 - N4400 E00245 - N4545 E00200 - N4600 E00300 SFC/FL070 STNR NC=



MET'MAP, la Météo Aéronautique d'un coup d'oeil ! - Copyright ORBIFLY Décembre 2007 - Disclaimer

ORBIFLY MET'MAP TEAM :

Programmation & Développement : Alexandra Zaïnal
Conception & Développement : Baudouin d'Aumeries
Co-Programmation & Développement : Marc-Olivier Méhu
Soutien technique & logistique : Manuel Goepfert

Contact : metmap@orbifly.com




SOURCES & CREDITS :

   NOAA